createdAt,value
2022-07-30T00:01:15.659Z,71.49
2022-07-30T00:03:42.224Z,71.94
2022-07-30T00:06:08.789Z,72.34
2022-07-30T00:08:35.302Z,70.51
2022-07-30T00:11:01.830Z,71.52
2022-07-30T00:13:28.506Z,70.31
2022-07-30T00:15:55.067Z,71.00
2022-07-30T00:18:21.817Z,72.90
2022-07-30T00:20:49.372Z,73.06
2022-07-30T00:23:17.243Z,73.52
2022-07-30T00:25:44.347Z,73.21
2022-07-30T00:28:11.081Z,73.75
2022-07-30T00:30:38.846Z,73.46
2022-07-30T00:33:05.572Z,72.54
2022-07-30T00:35:34.907Z,73.67
2022-07-30T00:38:01.564Z,73.45
2022-07-30T00:40:28.586Z,73.63
2022-07-30T00:42:55.179Z,72.30
2022-07-30T00:45:21.989Z,72.41
2022-07-30T00:47:48.564Z,73.01
2022-07-30T00:50:15.632Z,73.26
2022-07-30T00:52:43.138Z,73.75
2022-07-30T00:55:12.952Z,74.41
2022-07-30T00:57:39.992Z,72.87
2022-07-30T01:00:10.333Z,74.33
2022-07-30T01:02:37.017Z,75.53
2022-07-30T01:05:04.210Z,74.27
2022-07-30T01:07:30.783Z,74.70
2022-07-30T01:09:57.343Z,75.34
2022-07-30T01:12:27.253Z,75.57
2022-07-30T01:14:56.902Z,74.56
2022-07-30T01:17:23.637Z,73.96
2022-07-30T01:19:52.552Z,72.37
2022-07-30T01:22:31.155Z,72.69
2022-07-30T01:25:03.533Z,73.13
2022-07-30T01:27:43.098Z,71.10
2022-07-30T01:30:11.306Z,72.33
2022-07-30T01:32:42.960Z,72.96
2022-07-30T01:35:10.956Z,73.26
2022-07-30T01:37:38.972Z,73.27
2022-07-30T01:40:06.576Z,73.71
2022-07-30T01:42:35.084Z,73.77
2022-07-30T01:45:03.115Z,73.38
2022-07-30T01:47:31.941Z,73.91
2022-07-30T01:49:59.995Z,73.07
2022-07-30T01:52:30.957Z,73.53
2022-07-30T01:55:00.444Z,73.58
2022-07-30T01:57:27.152Z,74.62
2022-07-30T01:59:59.173Z,74.94
2022-07-30T02:02:25.752Z,73.68
2022-07-30T02:04:52.423Z,74.88
2022-07-30T02:07:31.434Z,74.72
2022-07-30T02:10:11.488Z,75.92
2022-07-30T02:12:43.452Z,75.93
2022-07-30T02:15:45.422Z,74.08
2022-07-30T02:18:23.840Z,74.29
2022-07-30T02:21:19.465Z,72.69
2022-07-30T02:23:48.793Z,72.96
2022-07-30T02:26:21.015Z,72.98
2022-07-30T02:28:51.930Z,72.40
2022-07-30T02:31:22.741Z,72.35
2022-07-30T02:33:53.473Z,72.47
2022-07-30T02:36:20.251Z,72.63
2022-07-30T02:38:50.710Z,72.51
2022-07-30T02:41:20.544Z,72.52
2022-07-30T02:43:48.875Z,72.03
2022-07-30T02:46:18.362Z,71.81
2022-07-30T02:48:47.268Z,70.76
2022-07-30T02:51:17.526Z,69.47
2022-07-30T02:53:46.364Z,70.24
2022-07-30T02:56:15.976Z,71.39
2022-07-30T02:58:44.751Z,71.97
2022-07-30T03:01:13.455Z,70.46
2022-07-30T03:03:43.004Z,71.06
2022-07-30T03:06:10.148Z,70.85
2022-07-30T03:08:37.375Z,71.69
2022-07-30T03:11:05.590Z,71.32
2022-07-30T03:13:32.235Z,70.96
2022-07-30T03:15:59.516Z,70.70
2022-07-30T03:18:32.850Z,70.00
2022-07-30T03:21:00.685Z,70.18
2022-07-30T03:23:28.238Z,70.35
2022-07-30T03:25:58.069Z,69.83
2022-07-30T03:28:25.614Z,69.43
2022-07-30T03:30:54.077Z,69.62
2022-07-30T03:33:22.164Z,70.80
2022-07-30T03:35:49.769Z,70.88
2022-07-30T03:38:17.604Z,71.23
2022-07-30T03:40:45.517Z,71.38
2022-07-30T03:43:32.108Z,71.77
2022-07-30T03:46:02.827Z,71.76
2022-07-30T03:48:30.345Z,71.24
2022-07-30T03:50:57.570Z,70.53
2022-07-30T03:53:25.247Z,70.76
2022-07-30T03:55:52.990Z,70.86
2022-07-30T03:58:19.683Z,70.65
2022-07-30T04:00:50.646Z,69.97
2022-07-30T04:03:27.659Z,69.68
2022-07-30T04:05:54.758Z,69.63
2022-07-30T04:08:21.474Z,69.74
2022-07-30T04:10:48.995Z,70.56
2022-07-30T04:13:15.884Z,69.07
2022-07-30T04:16:38.922Z,70.36
2022-07-30T04:18:56.191Z,68.95
2022-07-30T04:21:25.461Z,70.00
2022-07-30T04:24:03.639Z,68.02
2022-07-30T04:26:33.257Z,67.97
2022-07-30T04:29:01.645Z,68.33
2022-07-30T04:31:28.979Z,68.28
2022-07-30T04:33:55.625Z,68.05
2022-07-30T04:36:33.430Z,68.43
2022-07-30T04:39:00.483Z,67.65
2022-07-30T04:41:27.299Z,68.78
2022-07-30T04:43:53.905Z,69.20
2022-07-30T04:46:20.611Z,68.49
2022-07-30T04:48:51.889Z,70.47
2022-07-30T04:51:25.468Z,70.40
2022-07-30T04:53:54.814Z,69.58
2022-07-30T04:56:22.775Z,69.30
2022-07-30T04:58:50.609Z,68.54
2022-07-30T05:01:23.269Z,69.20
2022-07-30T05:04:02.340Z,69.13
2022-07-30T05:06:30.425Z,69.75
2022-07-30T05:08:57.845Z,71.17
2022-07-30T05:11:24.595Z,71.11
2022-07-30T05:13:51.246Z,70.43
2022-07-30T05:16:17.933Z,70.01
2022-07-30T05:18:45.408Z,70.62
2022-07-30T05:21:11.932Z,69.01
2022-07-30T05:23:38.471Z,68.63
2022-07-30T05:26:05.108Z,69.43
2022-07-30T05:28:31.833Z,69.36
2022-07-30T05:30:59.114Z,69.07
2022-07-30T05:33:41.375Z,68.77
2022-07-30T05:36:09.508Z,69.92
2022-07-30T05:38:36.130Z,69.75
2022-07-30T05:41:02.872Z,69.41
2022-07-30T05:43:29.439Z,68.58
2022-07-30T05:45:57.415Z,68.69
2022-07-30T05:48:24.012Z,68.89
2022-07-30T05:50:50.548Z,68.33
2022-07-30T05:53:17.073Z,67.43
2022-07-30T05:55:43.632Z,62.93
2022-07-30T05:58:10.183Z,59.71
2022-07-30T06:00:36.705Z,59.70
2022-07-30T06:03:03.643Z,57.31
2022-07-30T06:05:32.504Z,57.76
2022-07-30T06:07:59.035Z,58.54
2022-07-30T06:10:25.607Z,57.70
2022-07-30T06:12:52.154Z,56.59
2022-07-30T06:15:25.800Z,54.83
2022-07-30T06:17:57.187Z,54.15
2022-07-30T06:20:28.490Z,54.25
2022-07-30T06:22:55.077Z,54.31
2022-07-30T06:25:21.669Z,56.26
2022-07-30T06:27:48.148Z,58.88
2022-07-30T06:30:14.802Z,60.61
2022-07-30T06:32:43.648Z,60.95
2022-07-30T06:35:10.317Z,60.47
2022-07-30T06:37:58.778Z,60.63
2022-07-30T06:40:23.460Z,60.87
2022-07-30T06:42:50.031Z,59.64
2022-07-30T06:45:16.844Z,57.27
2022-07-30T06:47:43.409Z,54.36
2022-07-30T06:50:10.037Z,53.71
2022-07-30T06:52:38.421Z,55.54
2022-07-30T06:55:05.402Z,56.40
2022-07-30T06:57:32.076Z,56.69
2022-07-30T07:00:05.960Z,55.54
2022-07-30T07:02:32.485Z,56.96
2022-07-30T07:04:59.015Z,57.76
2022-07-30T07:07:40.767Z,58.05
2022-07-30T07:10:09.188Z,57.12
2022-07-30T07:12:35.755Z,58.30
2022-07-30T07:15:02.466Z,57.33
2022-07-30T07:17:28.992Z,57.93
2022-07-30T07:19:59.829Z,58.00
2022-07-30T07:22:28.420Z,57.11
2022-07-30T07:24:54.933Z,56.37
2022-07-30T07:27:21.688Z,57.23
2022-07-30T07:30:01.891Z,55.60
2022-07-30T07:32:33.663Z,57.56
2022-07-30T07:35:00.239Z,57.42
2022-07-30T07:37:27.070Z,56.20
2022-07-30T07:39:53.751Z,55.31
2022-07-30T07:42:20.340Z,56.43
2022-07-30T07:44:46.839Z,56.52
2022-07-30T07:47:13.342Z,55.04
2022-07-30T07:49:40.017Z,54.64
2022-07-30T07:52:06.535Z,55.22
2022-07-30T07:54:33.416Z,55.41
2022-07-30T07:57:03.150Z,54.23
2022-07-30T07:59:36.134Z,53.48
2022-07-30T08:02:08.051Z,53.54
2022-07-30T08:04:35.340Z,53.32
2022-07-30T08:07:02.331Z,53.90
2022-07-30T08:09:40.743Z,54.40
2022-07-30T08:12:11.696Z,54.57
2022-07-30T08:14:38.234Z,54.10
2022-07-30T08:17:05.151Z,53.91
2022-07-30T08:19:32.210Z,51.33
2022-07-30T08:21:59.746Z,51.33
2022-07-30T08:24:27.032Z,51.61
2022-07-30T08:26:53.881Z,51.94
2022-07-30T08:29:20.456Z,51.47
2022-07-30T08:31:47.036Z,51.30
2022-07-30T08:34:13.756Z,50.55
2022-07-30T08:36:40.812Z,51.19
2022-07-30T08:39:07.402Z,49.90
2022-07-30T08:41:36.343Z,50.00
2022-07-30T08:44:03.783Z,50.78
2022-07-30T08:46:32.171Z,50.23
2022-07-30T08:49:07.722Z,48.83
2022-07-30T08:51:37.701Z,48.34
2022-07-30T08:54:05.139Z,47.75
2022-07-30T08:56:33.382Z,47.79
2022-07-30T08:59:00.879Z,48.78
2022-07-30T09:01:27.735Z,49.06
2022-07-30T09:03:54.377Z,48.70
2022-07-30T09:06:20.930Z,48.47
2022-07-30T09:08:47.537Z,47.64
2022-07-30T09:11:14.195Z,47.98
2022-07-30T09:13:42.374Z,48.36
2022-07-30T09:16:22.429Z,47.03
2022-07-30T09:18:50.496Z,46.35
2022-07-30T09:21:28.436Z,46.31
2022-07-30T09:24:00.731Z,46.64
2022-07-30T09:26:27.506Z,47.98
2022-07-30T09:28:54.134Z,46.13
2022-07-30T09:31:21.817Z,45.10
2022-07-30T09:33:48.510Z,46.41
2022-07-30T09:36:17.691Z,46.33
2022-07-30T09:38:49.784Z,45.13
2022-07-30T09:41:37.843Z,45.81
2022-07-30T09:44:06.310Z,44.80
2022-07-30T09:46:51.588Z,44.80
2022-07-30T09:49:20.772Z,46.07
2022-07-30T09:51:56.101Z,45.71
2022-07-30T09:54:42.524Z,44.89
2022-07-30T09:57:26.047Z,46.23
2022-07-30T09:59:56.063Z,46.60
2022-07-30T10:02:33.348Z,46.25
2022-07-30T10:05:14.095Z,46.68
2022-07-30T10:07:58.506Z,46.33
2022-07-30T10:10:31.081Z,46.15
2022-07-30T10:13:04.756Z,47.10
2022-07-30T10:15:34.686Z,47.27
2022-07-30T10:18:06.371Z,47.20
2022-07-30T10:20:33.817Z,47.66
2022-07-30T10:23:08.298Z,47.32
2022-07-30T10:25:49.228Z,47.80
2022-07-30T10:28:22.554Z,47.33
2022-07-30T10:30:51.816Z,45.50
2022-07-30T10:33:34.670Z,46.09
2022-07-30T10:36:03.790Z,47.02
2022-07-30T10:38:34.306Z,47.11
2022-07-30T10:41:16.725Z,47.95
2022-07-30T10:43:57.926Z,47.79
2022-07-30T10:46:46.231Z,46.52
2022-07-30T10:49:19.168Z,47.89
2022-07-30T10:51:55.486Z,47.44
2022-07-30T10:54:44.675Z,46.92
2022-07-30T10:57:23.060Z,47.35
2022-07-30T11:00:04.139Z,47.45
2022-07-30T11:02:34.914Z,47.73
2022-07-30T11:05:32.060Z,46.90
2022-07-30T11:08:37.920Z,48.67
2022-07-30T11:11:59.449Z,47.61
2022-07-30T11:14:08.538Z,47.58
2022-07-30T11:16:35.164Z,46.91
2022-07-30T11:19:56.203Z,47.44
2022-07-30T11:22:27.221Z,46.07
2022-07-30T11:24:54.428Z,47.70
2022-07-30T11:27:41.918Z,46.62
2022-07-30T11:30:18.426Z,46.96
2022-07-30T11:32:45.604Z,46.84
2022-07-30T11:35:15.111Z,46.08
2022-07-30T11:38:19.629Z,45.79
2022-07-30T11:40:48.782Z,46.39
2022-07-30T11:43:19.421Z,47.51
2022-07-30T11:46:10.497Z,46.22
2022-07-30T11:48:39.671Z,46.06
2022-07-30T11:51:06.790Z,46.40
2022-07-30T11:53:33.371Z,47.46
2022-07-30T11:56:02.342Z,45.60
2022-07-30T11:58:39.767Z,44.98
2022-07-30T12:01:11.903Z,46.04
2022-07-30T12:03:45.667Z,43.56
2022-07-30T12:06:19.615Z,45.97
2022-07-30T12:08:48.418Z,45.68
2022-07-30T12:11:15.653Z,45.23
2022-07-30T12:13:46.178Z,45.44
2022-07-30T12:16:17.635Z,42.64
2022-07-30T12:18:45.138Z,42.74
2022-07-30T12:21:12.816Z,41.44
2022-07-30T12:23:39.724Z,42.28
2022-07-30T12:26:06.429Z,45.63
2022-07-30T12:28:34.829Z,44.97
2022-07-30T12:31:04.394Z,42.97
2022-07-30T12:33:31.512Z,42.41
2022-07-30T12:36:00.342Z,44.03
2022-07-30T12:38:28.291Z,44.25
2022-07-30T12:41:03.983Z,44.48
2022-07-30T12:43:51.950Z,43.55
2022-07-30T12:46:19.975Z,42.18
2022-07-30T12:49:02.098Z,41.02
2022-07-30T12:51:59.773Z,41.76
2022-07-30T12:54:27.852Z,41.74
2022-07-30T12:57:03.565Z,43.22
2022-07-30T12:59:31.477Z,43.98
2022-07-30T13:02:00.397Z,44.92
2022-07-30T13:04:27.700Z,43.99
2022-07-30T13:07:11.389Z,44.64
2022-07-30T13:09:39.896Z,44.85
2022-07-30T13:12:07.090Z,43.44
2022-07-30T13:14:33.704Z,42.84
2022-07-30T13:17:01.105Z,41.81
2022-07-30T13:19:28.210Z,41.84
2022-07-30T13:21:54.755Z,41.15
2022-07-30T13:24:21.847Z,42.64
2022-07-30T13:26:50.590Z,42.50
2022-07-30T13:29:17.847Z,40.93
2022-07-30T13:31:44.353Z,42.18
2022-07-30T13:34:12.156Z,40.30
2022-07-30T13:36:39.033Z,41.07
2022-07-30T13:39:05.513Z,41.45
2022-07-30T13:41:33.225Z,39.72
2022-07-30T13:43:59.766Z,39.91
2022-07-30T13:46:27.431Z,40.59
2022-07-30T13:48:54.948Z,39.57
2022-07-30T13:51:21.707Z,38.95
2022-07-30T13:53:48.227Z,39.09
2022-07-30T13:56:14.746Z,38.67
2022-07-30T13:58:42.582Z,40.77
2022-07-30T14:01:10.153Z,39.49
2022-07-30T14:03:49.373Z,39.79
2022-07-30T14:06:18.031Z,40.11
2022-07-30T14:08:44.569Z,41.41
2022-07-30T14:11:11.062Z,39.61
2022-07-30T14:13:38.016Z,39.35
2022-07-30T14:16:08.197Z,40.30
2022-07-30T14:18:44.755Z,40.56
2022-07-30T14:21:11.334Z,40.60
2022-07-30T14:23:37.912Z,40.78
2022-07-30T14:26:04.630Z,42.29
2022-07-30T14:28:31.154Z,40.12
2022-07-30T14:30:57.701Z,40.36
2022-07-30T14:33:24.242Z,40.87
2022-07-30T14:35:50.741Z,40.01
2022-07-30T14:38:17.261Z,42.06
2022-07-30T14:40:43.777Z,42.29
2022-07-30T14:43:10.228Z,43.17
2022-07-30T14:45:36.858Z,42.55
2022-07-30T14:48:03.559Z,42.45
2022-07-30T14:50:30.715Z,41.57
2022-07-30T14:52:57.196Z,40.91
2022-07-30T14:55:23.833Z,40.21
2022-07-30T14:57:50.323Z,40.65
2022-07-30T15:00:17.164Z,40.53
2022-07-30T15:02:44.176Z,40.63
2022-07-30T15:05:10.791Z,41.05
2022-07-30T15:07:37.444Z,40.39
2022-07-30T15:10:07.524Z,40.67
2022-07-30T15:12:34.117Z,41.21
2022-07-30T15:15:00.750Z,40.65
2022-07-30T15:17:28.419Z,41.28
2022-07-30T15:19:54.956Z,40.82
2022-07-30T15:22:21.643Z,40.56
2022-07-30T15:24:48.818Z,39.71
2022-07-30T15:27:15.468Z,41.12
2022-07-30T15:29:41.986Z,40.08
2022-07-30T15:32:08.514Z,39.06
2022-07-30T15:34:35.085Z,40.49
2022-07-30T15:37:02.917Z,39.71
2022-07-30T15:39:32.305Z,39.81
2022-07-30T15:42:00.885Z,40.58
2022-07-30T15:44:27.738Z,39.66
2022-07-30T15:46:54.970Z,40.90
2022-07-30T15:49:21.549Z,39.08
2022-07-30T15:51:51.843Z,39.32
2022-07-30T15:54:22.529Z,40.79
2022-07-30T15:56:50.556Z,40.51
2022-07-30T15:59:17.112Z,39.05
2022-07-30T16:01:44.095Z,39.93
2022-07-30T16:04:18.984Z,39.74
2022-07-30T16:06:46.429Z,39.17
2022-07-30T16:09:13.665Z,39.08
2022-07-30T16:11:41.579Z,38.92
2022-07-30T16:14:09.266Z,40.04
2022-07-30T16:16:35.829Z,39.25
2022-07-30T16:19:02.511Z,39.64
2022-07-30T16:21:29.011Z,39.92
2022-07-30T16:23:56.601Z,39.37
2022-07-30T16:26:23.183Z,39.74
2022-07-30T16:28:49.907Z,39.93
2022-07-30T16:31:17.167Z,40.81
2022-07-30T16:33:43.867Z,40.39
2022-07-30T16:36:11.078Z,40.23
2022-07-30T16:38:37.603Z,40.29
2022-07-30T16:41:04.166Z,39.16
2022-07-30T16:43:31.969Z,39.03
2022-07-30T16:45:59.461Z,38.99
2022-07-30T16:48:26.455Z,39.58
2022-07-30T16:50:53.299Z,40.01
2022-07-30T16:53:20.097Z,40.04
2022-07-30T16:55:47.118Z,39.72
2022-07-30T16:58:13.649Z,39.06
2022-07-30T17:00:40.441Z,38.34
2022-07-30T17:03:07.323Z,38.10
2022-07-30T17:05:34.260Z,38.48
2022-07-30T17:08:01.011Z,38.59
2022-07-30T17:10:27.891Z,38.81
2022-07-30T17:12:57.208Z,38.79
2022-07-30T17:15:32.115Z,39.10
2022-07-30T17:18:00.652Z,38.43
2022-07-30T17:20:27.798Z,38.30
2022-07-30T17:22:56.076Z,39.66
2022-07-30T17:25:27.520Z,38.07
2022-07-30T17:27:58.783Z,37.83
2022-07-30T17:30:26.886Z,38.90
2022-07-30T17:32:53.550Z,38.44
2022-07-30T17:35:20.524Z,38.77
2022-07-30T17:37:47.074Z,38.79
2022-07-30T17:40:28.416Z,38.57
2022-07-30T17:43:02.994Z,38.36
2022-07-30T17:45:30.724Z,38.44
2022-07-30T17:47:57.930Z,39.55
2022-07-30T17:50:24.527Z,41.90
2022-07-30T17:52:51.200Z,42.01
2022-07-30T17:55:17.735Z,43.19
2022-07-30T17:57:44.223Z,43.57
2022-07-30T18:00:11.763Z,43.65
2022-07-30T18:02:38.311Z,43.52
2022-07-30T18:05:05.286Z,44.30
2022-07-30T18:07:31.833Z,43.87
2022-07-30T18:09:58.370Z,43.99
2022-07-30T18:12:24.960Z,43.74
2022-07-30T18:14:52.018Z,44.09
2022-07-30T18:17:18.588Z,44.45
2022-07-30T18:19:45.277Z,43.61
2022-07-30T18:22:14.698Z,43.59
2022-07-30T18:24:43.757Z,43.12
2022-07-30T18:27:11.975Z,43.11
2022-07-30T18:29:38.853Z,43.54
2022-07-30T18:32:06.171Z,43.24
2022-07-30T18:34:33.149Z,43.28
2022-07-30T18:36:59.912Z,43.29
2022-07-30T18:39:26.594Z,42.50
2022-07-30T18:41:53.131Z,42.70
2022-07-30T18:44:19.804Z,41.95
2022-07-30T18:46:46.380Z,41.37
2022-07-30T18:49:35.108Z,41.29
2022-07-30T18:52:01.353Z,40.53
2022-07-30T18:54:29.408Z,40.65
2022-07-30T18:56:56.354Z,40.10
2022-07-30T18:59:23.204Z,39.53
2022-07-30T19:01:49.936Z,39.47
2022-07-30T19:04:16.483Z,38.89
2022-07-30T19:06:43.192Z,39.55
2022-07-30T19:09:17.019Z,38.52
2022-07-30T19:11:45.103Z,41.37
2022-07-30T19:14:13.156Z,38.63
2022-07-30T19:16:40.878Z,38.86
2022-07-30T19:19:07.852Z,40.15
2022-07-30T19:21:34.753Z,38.79
2022-07-30T19:24:01.798Z,38.90
2022-07-30T19:26:28.577Z,39.00
2022-07-30T19:28:55.270Z,39.47
2022-07-30T19:31:22.030Z,39.10
2022-07-30T19:33:49.304Z,39.52
2022-07-30T19:36:18.985Z,39.90
2022-07-30T19:38:45.577Z,39.69
2022-07-30T19:41:12.248Z,40.39
2022-07-30T19:43:41.023Z,40.92
2022-07-30T19:46:08.027Z,41.26
2022-07-30T19:48:37.306Z,42.04
2022-07-30T19:51:05.470Z,42.51
2022-07-30T19:53:42.720Z,43.01
2022-07-30T19:56:11.474Z,42.78
2022-07-30T19:58:38.225Z,44.13
2022-07-30T20:01:08.315Z,44.56
2022-07-30T20:03:35.664Z,44.73
2022-07-30T20:06:02.302Z,45.54
2022-07-30T20:08:29.590Z,45.59
2022-07-30T20:10:57.880Z,45.58
2022-07-30T20:13:45.370Z,45.38
2022-07-30T20:16:13.090Z,45.70
2022-07-30T20:18:40.314Z,46.21
2022-07-30T20:21:14.028Z,46.32
2022-07-30T20:23:41.600Z,46.48
2022-07-30T20:26:12.547Z,46.27
2022-07-30T20:28:40.611Z,46.03
2022-07-30T20:31:07.224Z,46.44
2022-07-30T20:33:36.154Z,46.20
2022-07-30T20:36:05.031Z,46.81
2022-07-30T20:38:33.766Z,47.21
2022-07-30T20:41:02.255Z,47.71
2022-07-30T20:43:29.168Z,48.51
2022-07-30T20:45:56.041Z,48.70
2022-07-30T20:51:11.834Z,50.15
2022-07-30T20:53:38.388Z,49.23
2022-07-30T20:56:05.062Z,50.34
2022-07-30T20:58:31.602Z,51.54
2022-07-30T21:01:00.121Z,51.57
2022-07-30T21:03:27.139Z,52.11
2022-07-30T21:05:56.285Z,52.35
2022-07-30T21:08:25.068Z,53.78
2022-07-30T21:10:53.136Z,54.47
2022-07-30T21:13:22.308Z,55.17
2022-07-30T21:16:02.443Z,55.19
2022-07-30T21:18:38.044Z,55.36
2022-07-30T21:21:06.880Z,55.97
2022-07-30T21:23:33.578Z,56.21
2022-07-30T21:26:04.780Z,56.31
2022-07-30T21:28:35.379Z,56.30
2022-07-30T21:31:03.899Z,56.19
2022-07-30T21:33:34.841Z,56.50
2022-07-30T21:36:01.396Z,57.42
2022-07-30T21:38:28.632Z,57.04
2022-07-30T21:40:57.064Z,58.81
2022-07-30T21:43:29.357Z,59.86
2022-07-30T21:48:43.967Z,59.90
2022-07-30T21:51:11.577Z,60.75
2022-07-30T21:53:44.935Z,60.55
2022-07-30T21:56:13.525Z,59.94
2022-07-30T21:58:41.168Z,60.65
2022-07-30T22:01:17.177Z,60.25
2022-07-30T22:06:40.054Z,59.29
2022-07-30T22:09:26.401Z,58.92
2022-07-30T22:12:01.237Z,58.64
2022-07-30T22:14:29.090Z,58.55
2022-07-30T22:16:55.941Z,57.55
2022-07-30T22:19:22.891Z,56.43
2022-07-30T22:24:37.247Z,54.93
2022-07-30T22:27:14.401Z,55.46
2022-07-30T22:29:43.115Z,55.62
2022-07-30T22:32:10.698Z,55.65
2022-07-30T22:34:37.604Z,55.68
2022-07-30T22:37:04.139Z,55.93
2022-07-30T22:39:32.181Z,56.01
2022-07-30T22:42:17.534Z,54.96
2022-07-30T22:44:45.931Z,54.77
2022-07-30T22:47:18.835Z,54.60
2022-07-30T22:49:56.132Z,53.80
2022-07-30T22:52:29.732Z,53.89
2022-07-30T22:55:08.466Z,53.14
2022-07-30T22:57:37.943Z,52.95
2022-07-30T23:00:11.977Z,53.16
2022-07-30T23:02:40.292Z,53.00
2022-07-30T23:05:08.651Z,53.77
2022-07-30T23:07:39.729Z,53.15
2022-07-30T23:10:17.469Z,53.35
2022-07-30T23:12:19.612Z,48.98
2022-07-30T23:12:28.645Z,56.73
2022-07-30T23:12:31.101Z,59.41
2022-07-30T23:12:31.417Z,58.92
2022-07-30T23:12:47.942Z,53.50
2022-07-30T23:15:15.038Z,53.88
2022-07-30T23:17:41.630Z,53.78
2022-07-30T23:20:11.241Z,54.07
2022-07-30T23:22:37.872Z,53.46
2022-07-30T23:25:07.153Z,53.37
2022-07-30T23:27:34.305Z,53.48
2022-07-30T23:30:00.831Z,53.37
2022-07-30T23:32:27.462Z,52.92
2022-07-30T23:34:54.031Z,52.98
2022-07-30T23:37:20.579Z,52.67
2022-07-30T23:39:47.101Z,52.87
2022-07-30T23:42:13.700Z,52.58
2022-07-30T23:44:40.268Z,53.26
2022-07-30T23:47:07.144Z,53.47
2022-07-30T23:49:33.702Z,52.89
2022-07-30T23:52:00.270Z,52.89
2022-07-30T23:54:28.802Z,53.20
2022-07-30T23:56:56.238Z,52.94
2022-07-30T23:59:36.935Z,53.48
